createdAt,value
2022-08-14T00:00:40.615Z,0.00
2022-08-14T00:01:40.608Z,0.00
2022-08-14T00:02:40.579Z,0.00
2022-08-14T00:03:41.906Z,0.00
2022-08-14T00:04:44.578Z,0.00
2022-08-14T00:05:40.529Z,0.00
2022-08-14T00:06:40.498Z,0.00
2022-08-14T00:07:42.041Z,0.00
2022-08-14T00:08:45.162Z,0.00
2022-08-14T00:10:01.988Z,0.00
2022-08-14T00:10:52.178Z,0.00
2022-08-14T00:11:43.544Z,0.00
2022-08-14T00:12:41.121Z,0.00
2022-08-14T00:13:40.409Z,0.00
2022-08-14T00:14:40.443Z,0.00
2022-08-14T00:15:44.174Z,0.00
2022-08-14T00:16:44.776Z,0.00
2022-08-14T00:17:47.900Z,0.00
2022-08-14T00:19:18.514Z,0.00
2022-08-14T00:19:42.267Z,0.00
2022-08-14T00:20:42.930Z,0.00
2022-08-14T00:21:42.243Z,0.00
2022-08-14T00:22:56.777Z,0.00
2022-08-14T00:23:41.314Z,0.00
2022-08-14T00:24:40.993Z,0.00
2022-08-14T00:25:42.425Z,0.00
2022-08-14T00:26:41.002Z,0.00
2022-08-14T00:27:40.947Z,0.00
2022-08-14T00:28:40.341Z,0.00
2022-08-14T00:29:42.874Z,0.00
2022-08-14T00:30:42.835Z,0.00
2022-08-14T00:31:45.745Z,0.00
2022-08-14T00:32:52.129Z,0.00
2022-08-14T00:33:51.469Z,0.00
2022-08-14T00:34:46.747Z,0.00
2022-08-14T00:36:33.818Z,0.00
2022-08-14T00:36:49.225Z,0.00
2022-08-14T00:37:44.314Z,0.00
2022-08-14T00:38:41.468Z,0.00
2022-08-14T00:39:40.769Z,0.00
2022-08-14T00:40:41.060Z,0.00
2022-08-14T00:41:42.298Z,0.00
2022-08-14T00:42:54.894Z,0.00
2022-08-14T00:43:45.700Z,0.00
2022-08-14T00:44:40.387Z,0.00
2022-08-14T00:45:40.827Z,0.00
2022-08-14T00:46:41.032Z,0.00
2022-08-14T00:47:43.113Z,0.00
2022-08-14T00:48:42.563Z,0.00
2022-08-14T00:49:43.016Z,0.00
2022-08-14T00:50:43.452Z,0.00
2022-08-14T00:51:41.235Z,0.00
2022-08-14T00:52:40.912Z,0.00
2022-08-14T00:53:40.115Z,0.00
2022-08-14T00:54:43.531Z,0.00
2022-08-14T00:55:43.487Z,0.00
2022-08-14T00:56:40.404Z,0.00
2022-08-14T00:57:41.069Z,0.00
2022-08-14T00:58:45.487Z,0.00
2022-08-14T00:59:43.559Z,0.00
2022-08-14T01:00:47.438Z,0.00
2022-08-14T01:01:41.379Z,0.00
2022-08-14T01:02:41.036Z,0.00
2022-08-14T01:03:42.425Z,0.00
2022-08-14T01:04:53.961Z,0.00
2022-08-14T01:05:41.734Z,0.00
2022-08-14T01:06:45.301Z,0.00
2022-08-14T01:07:54.135Z,0.00
2022-08-14T01:08:51.886Z,0.00
2022-08-14T01:09:42.318Z,0.00
2022-08-14T01:10:40.273Z,0.00
2022-08-14T01:11:40.551Z,0.00
2022-08-14T01:12:41.875Z,0.00
2022-08-14T01:13:42.828Z,0.00
2022-08-14T01:14:40.824Z,0.00
2022-08-14T01:15:57.589Z,0.00
2022-08-14T01:16:40.793Z,0.00
2022-08-14T01:17:45.763Z,0.00
2022-08-14T01:18:40.742Z,0.00
2022-08-14T01:19:41.279Z,0.00
2022-08-14T01:20:40.861Z,0.00
2022-08-14T01:21:46.785Z,0.00
2022-08-14T01:22:40.732Z,0.00
2022-08-14T01:23:46.608Z,0.00
2022-08-14T01:24:40.762Z,0.00
2022-08-14T01:25:39.658Z,0.00
2022-08-14T01:26:39.750Z,0.00
2022-08-14T01:27:53.835Z,0.00
2022-08-14T01:28:56.264Z,0.00
2022-08-14T01:29:58.462Z,0.00
2022-08-14T01:30:40.655Z,0.00
2022-08-14T01:31:39.631Z,0.00
2022-08-14T01:32:42.464Z,0.00
2022-08-14T01:35:15.811Z,0.00
2022-08-14T01:35:18.511Z,0.00
2022-08-14T01:36:03.644Z,0.00
2022-08-14T01:36:40.677Z,0.00
2022-08-14T01:37:44.217Z,0.00
2022-08-14T01:38:39.626Z,0.00
2022-08-14T01:39:41.473Z,0.00
2022-08-14T01:40:41.750Z,0.00
2022-08-14T01:41:39.549Z,0.00
2022-08-14T01:42:39.642Z,0.00
2022-08-14T01:43:40.131Z,0.00
2022-08-14T01:44:41.299Z,0.00
2022-08-14T01:45:40.610Z,0.00
2022-08-14T01:46:39.451Z,0.00
2022-08-14T01:47:39.413Z,0.00
2022-08-14T01:48:39.471Z,0.00
2022-08-14T01:49:46.263Z,0.00
2022-08-14T01:50:40.353Z,0.00
2022-08-14T01:51:39.442Z,0.00
2022-08-14T01:52:58.649Z,0.00
2022-08-14T01:53:41.592Z,0.00
2022-08-14T01:54:39.327Z,0.00
2022-08-14T01:55:40.491Z,0.00
2022-08-14T01:56:39.995Z,0.00
2022-08-14T01:58:00.496Z,0.00
2022-08-14T01:58:57.188Z,0.00
2022-08-14T01:59:40.357Z,0.00
2022-08-14T02:00:39.967Z,0.00
2022-08-14T02:01:41.810Z,0.00
2022-08-14T02:02:40.290Z,0.00
2022-08-14T02:03:40.163Z,0.00
2022-08-14T02:04:55.995Z,0.00
2022-08-14T02:05:40.269Z,0.00
2022-08-14T02:06:42.022Z,0.00
2022-08-14T02:07:53.479Z,0.00
2022-08-14T02:08:52.526Z,0.00
2022-08-14T02:09:40.198Z,0.00
2022-08-14T02:10:46.393Z,0.00
2022-08-14T02:11:40.179Z,0.00
2022-08-14T02:12:39.877Z,0.00
2022-08-14T02:13:39.128Z,0.00
2022-08-14T02:14:39.130Z,0.00
2022-08-14T02:15:40.182Z,0.00
2022-08-14T02:16:39.770Z,0.00
2022-08-14T02:17:39.113Z,0.00
2022-08-14T02:18:39.751Z,0.00
2022-08-14T02:19:41.052Z,0.00
2022-08-14T02:20:39.062Z,0.00
2022-08-14T02:21:47.265Z,0.00
2022-08-14T02:22:47.360Z,0.00
2022-08-14T02:23:40.756Z,0.00
2022-08-14T02:24:45.193Z,0.00
2022-08-14T02:25:41.454Z,0.00
2022-08-14T02:28:18.951Z,0.00
2022-08-14T02:28:24.615Z,0.00
2022-08-14T02:28:56.753Z,0.00
2022-08-14T02:29:56.482Z,0.00
2022-08-14T02:30:39.981Z,0.00
2022-08-14T02:31:43.315Z,0.00
2022-08-14T02:32:40.019Z,0.00
2022-08-14T02:33:39.057Z,0.00
2022-08-14T02:34:38.936Z,0.00
2022-08-14T02:35:40.652Z,0.00
2022-08-14T02:37:04.921Z,0.00
2022-08-14T02:37:48.254Z,0.00
2022-08-14T02:38:39.847Z,0.00
2022-08-14T02:39:38.943Z,0.00
2022-08-14T02:40:38.877Z,0.00
2022-08-14T02:41:45.025Z,0.00
2022-08-14T02:42:39.840Z,0.00
2022-08-14T02:43:46.449Z,0.00
2022-08-14T02:44:40.037Z,0.00
2022-08-14T02:45:44.662Z,0.00
2022-08-14T02:46:41.136Z,0.00
2022-08-14T02:47:38.983Z,0.00
2022-08-14T02:49:04.869Z,0.00
2022-08-14T02:49:41.755Z,0.00
2022-08-14T02:50:39.412Z,0.00
2022-08-14T02:51:38.746Z,0.00
2022-08-14T02:52:57.880Z,0.00
2022-08-14T02:53:39.694Z,0.00
2022-08-14T02:54:40.652Z,0.00
2022-08-14T02:55:38.683Z,0.00
2022-08-14T02:57:15.273Z,0.00
2022-08-14T02:57:41.083Z,0.00
2022-08-14T02:58:38.753Z,0.00
2022-08-14T02:59:39.314Z,0.00
2022-08-14T03:00:40.543Z,0.00
2022-08-14T03:01:43.247Z,0.00
2022-08-14T03:02:56.257Z,0.00
2022-08-14T03:03:39.655Z,0.00
2022-08-14T03:04:40.517Z,0.00
2022-08-14T03:05:41.113Z,0.00
2022-08-14T03:07:06.516Z,0.00
2022-08-14T03:07:39.661Z,0.00
2022-08-14T03:08:39.217Z,0.00
2022-08-14T03:10:24.441Z,0.00
2022-08-14T03:10:41.786Z,0.00
2022-08-14T03:11:39.539Z,0.00
2022-08-14T03:12:40.192Z,0.00
2022-08-14T03:13:38.656Z,0.00
2022-08-14T03:14:38.574Z,0.00
2022-08-14T03:15:38.501Z,0.00
2022-08-14T03:16:38.652Z,0.00
2022-08-14T03:17:41.203Z,0.00
2022-08-14T03:18:40.100Z,0.00
2022-08-14T03:19:38.412Z,0.00
2022-08-14T03:20:39.890Z,0.00
2022-08-14T03:21:39.071Z,0.00
2022-08-14T03:22:38.448Z,0.00
2022-08-14T03:23:39.233Z,0.00
2022-08-14T03:24:39.039Z,0.00
2022-08-14T03:25:39.044Z,0.00
2022-08-14T03:26:39.019Z,0.00
2022-08-14T03:27:48.446Z,0.00
2022-08-14T03:28:39.432Z,0.00
2022-08-14T03:29:39.006Z,0.00
2022-08-14T03:30:40.994Z,0.00
2022-08-14T03:31:38.285Z,0.00
2022-08-14T03:32:38.962Z,0.00
2022-08-14T03:33:40.441Z,0.00
2022-08-14T03:34:52.783Z,4.00
2022-08-14T03:36:07.667Z,0.00
2022-08-14T03:37:38.315Z,0.00
2022-08-14T03:39:09.916Z,4.00
2022-08-14T03:39:15.648Z,0.00
2022-08-14T03:39:39.258Z,4.00
2022-08-14T03:40:38.238Z,4.00
2022-08-14T03:41:38.239Z,4.00
2022-08-14T03:42:38.281Z,4.00
2022-08-14T03:43:40.059Z,8.00
2022-08-14T03:45:18.685Z,8.00
2022-08-14T03:45:47.906Z,8.00
2022-08-14T03:46:52.381Z,8.00
2022-08-14T03:47:46.446Z,8.00
2022-08-14T03:48:40.514Z,12.00
2022-08-14T03:49:42.268Z,12.00
2022-08-14T03:50:38.099Z,12.00
2022-08-14T03:51:38.112Z,16.00
2022-08-14T03:52:55.805Z,20.00
2022-08-14T03:53:41.001Z,20.00
2022-08-14T03:54:38.723Z,24.00
2022-08-14T03:55:38.067Z,28.00
2022-08-14T03:56:38.040Z,32.00
2022-08-14T03:57:38.055Z,36.00
2022-08-14T03:58:38.071Z,40.00
2022-08-14T03:59:38.002Z,44.00
2022-08-14T04:00:43.597Z,48.00
2022-08-14T04:01:45.619Z,56.00
2022-08-14T04:02:47.299Z,60.00
2022-08-14T04:03:40.976Z,68.00
2022-08-14T04:04:37.976Z,76.00
2022-08-14T04:05:43.506Z,84.00
2022-08-14T04:06:44.555Z,88.00
2022-08-14T04:07:49.902Z,100.00
2022-08-14T04:08:38.895Z,108.00
2022-08-14T04:09:39.891Z,116.00
2022-08-14T04:10:38.568Z,132.00
2022-08-14T04:11:37.945Z,144.00
2022-08-14T04:12:37.879Z,156.00
2022-08-14T04:13:37.866Z,168.00
2022-08-14T04:14:37.860Z,184.00
2022-08-14T04:15:56.263Z,200.00
2022-08-14T04:16:38.859Z,216.00
2022-08-14T04:17:38.488Z,232.00
2022-08-14T04:18:38.462Z,252.00
2022-08-14T04:19:39.746Z,272.00
2022-08-14T04:20:51.714Z,292.00
2022-08-14T04:22:03.917Z,316.00
2022-08-14T04:22:38.751Z,340.00
2022-08-14T04:23:37.800Z,368.00
2022-08-14T04:24:39.331Z,392.00
2022-08-14T04:25:37.737Z,420.00
2022-08-14T04:26:42.484Z,452.00
2022-08-14T04:28:01.901Z,480.00
2022-08-14T04:29:07.189Z,504.00
2022-08-14T04:29:39.367Z,536.00
2022-08-14T04:30:38.533Z,568.00
2022-08-14T04:33:00.980Z,636.00
2022-08-14T04:33:01.417Z,604.00
2022-08-14T04:33:38.761Z,668.00
2022-08-14T04:34:37.653Z,700.00
2022-08-14T04:35:55.430Z,732.00
2022-08-14T04:36:39.505Z,764.00
2022-08-14T04:37:38.276Z,796.00
2022-08-14T04:38:39.784Z,832.00
2022-08-14T04:39:37.657Z,868.00
2022-08-14T04:40:40.481Z,904.00
2022-08-14T04:41:39.975Z,932.00
2022-08-14T04:42:38.273Z,964.00
2022-08-14T04:43:39.598Z,996.00
2022-08-14T04:44:37.516Z,1024.00
2022-08-14T04:45:38.490Z,1048.00
2022-08-14T04:46:55.335Z,1076.00
2022-08-14T04:47:39.176Z,1092.00
2022-08-14T04:48:43.825Z,1104.00
2022-08-14T04:49:46.694Z,1132.00
2022-08-14T04:50:44.370Z,1168.00
2022-08-14T04:51:46.684Z,1228.00
2022-08-14T04:52:39.111Z,1316.00
2022-08-14T04:53:42.920Z,1400.00
2022-08-14T04:54:38.390Z,1460.00
2022-08-14T04:55:38.228Z,1500.00
2022-08-14T04:56:38.062Z,1536.00
2022-08-14T04:57:37.400Z,1576.00
2022-08-14T04:58:38.053Z,1612.00
2022-08-14T04:59:37.346Z,1648.00
2022-08-14T05:00:38.355Z,1688.00
2022-08-14T05:01:39.788Z,1724.00
2022-08-14T05:02:38.088Z,1760.00
2022-08-14T05:03:39.218Z,1796.00
2022-08-14T05:04:39.739Z,1828.00
2022-08-14T05:05:38.273Z,1864.00
2022-08-14T05:06:39.858Z,1900.00
2022-08-14T05:07:54.654Z,1936.00
2022-08-14T05:08:57.491Z,1968.00
2022-08-14T05:09:43.862Z,2008.00
2022-08-14T05:10:42.192Z,2044.00
2022-08-14T05:11:40.136Z,2096.00
2022-08-14T05:13:12.757Z,2140.00
2022-08-14T05:13:53.203Z,2156.00
2022-08-14T05:14:46.953Z,2196.00
2022-08-14T05:15:39.652Z,2236.00
2022-08-14T05:16:37.841Z,2280.00
2022-08-14T05:17:53.828Z,2352.00
2022-08-14T05:19:18.849Z,2364.00
2022-08-14T05:19:45.031Z,2400.00
2022-08-14T05:21:56.099Z,2444.00
2022-08-14T05:22:00.286Z,2488.00
2022-08-14T05:22:40.078Z,2532.00
2022-08-14T05:23:37.785Z,2580.00
2022-08-14T05:24:37.766Z,2628.00
2022-08-14T05:25:37.073Z,2672.00
2022-08-14T05:26:38.050Z,2724.00
2022-08-14T05:27:37.733Z,2780.00
2022-08-14T05:28:37.042Z,2820.00
2022-08-14T05:29:37.717Z,2872.00
2022-08-14T05:30:37.014Z,2940.00
2022-08-14T05:31:40.152Z,2988.00
2022-08-14T05:32:37.205Z,3656.00
2022-08-14T05:33:37.679Z,4668.00
2022-08-14T05:34:36.987Z,4164.00
2022-08-14T05:35:36.995Z,3692.00
2022-08-14T05:36:38.644Z,3348.00
2022-08-14T05:37:36.937Z,3368.00
2022-08-14T05:38:37.987Z,3448.00
2022-08-14T05:39:37.662Z,3560.00
2022-08-14T05:40:37.858Z,3652.00
2022-08-14T05:41:52.739Z,3760.00
2022-08-14T05:42:38.643Z,4164.00
2022-08-14T05:43:41.183Z,4320.00
2022-08-14T05:44:37.917Z,4292.00
2022-08-14T05:45:37.537Z,4400.00
2022-08-14T05:46:37.655Z,5128.00
2022-08-14T05:47:39.569Z,6712.00
2022-08-14T05:48:43.151Z,7132.00
2022-08-14T05:49:38.499Z,6976.00
2022-08-14T05:50:36.851Z,5892.00
2022-08-14T05:51:37.483Z,5620.00
2022-08-14T05:52:48.841Z,6856.00
2022-08-14T05:53:42.281Z,9012.00
2022-08-14T05:54:37.448Z,10544.00
2022-08-14T05:55:36.884Z,9864.00
2022-08-14T05:56:38.404Z,9948.00
2022-08-14T05:57:36.762Z,10928.00
2022-08-14T05:58:41.480Z,11232.00
2022-08-14T05:59:39.507Z,11728.00
2022-08-14T06:00:38.620Z,11860.00
2022-08-14T06:01:36.773Z,11444.00
2022-08-14T06:02:37.355Z,10960.00
2022-08-14T06:03:36.665Z,10268.00
2022-08-14T06:04:36.688Z,10792.00
2022-08-14T06:05:38.742Z,11444.00
2022-08-14T06:06:38.433Z,12356.00
2022-08-14T06:07:36.967Z,12088.00
2022-08-14T06:08:41.686Z,11856.00
2022-08-14T06:09:40.527Z,11696.00
2022-08-14T06:10:37.539Z,12064.00
2022-08-14T06:11:37.260Z,12348.00
2022-08-14T06:12:56.466Z,11728.00
2022-08-14T06:13:45.847Z,12184.00
2022-08-14T06:14:37.563Z,12736.00
2022-08-14T06:15:38.490Z,12632.00
2022-08-14T06:16:36.529Z,12656.00
2022-08-14T06:17:42.234Z,13368.00
2022-08-14T06:18:38.222Z,14336.00
2022-08-14T06:19:37.201Z,14944.00
2022-08-14T06:20:37.169Z,14368.00
2022-08-14T06:21:36.509Z,13024.00
2022-08-14T06:22:36.524Z,12560.00
2022-08-14T06:23:37.132Z,12440.00
2022-08-14T06:24:36.484Z,14016.00
2022-08-14T06:25:38.408Z,15456.00
2022-08-14T06:26:37.104Z,16160.00
2022-08-14T06:27:36.415Z,16832.00
2022-08-14T06:28:37.076Z,16416.00
2022-08-14T06:29:37.071Z,15744.00
2022-08-14T06:30:45.953Z,16096.00
2022-08-14T06:31:38.320Z,16768.00
2022-08-14T06:32:39.031Z,17504.00
2022-08-14T06:35:02.762Z,21984.00
2022-08-14T06:35:02.914Z,20256.00
2022-08-14T06:35:38.249Z,21600.00
2022-08-14T06:36:36.988Z,20768.00
2022-08-14T06:37:36.975Z,19200.00
2022-08-14T06:38:36.316Z,20352.00
2022-08-14T06:39:38.782Z,26048.00
2022-08-14T06:40:36.334Z,28704.00
2022-08-14T06:41:58.042Z,28640.00
2022-08-14T06:42:38.310Z,24640.00
2022-08-14T06:43:36.932Z,19136.00
2022-08-14T06:44:36.910Z,15424.00
2022-08-14T06:45:36.910Z,14212.00
2022-08-14T06:46:37.254Z,13664.00
2022-08-14T06:47:38.124Z,12804.00
2022-08-14T06:48:37.313Z,11924.00
2022-08-14T06:49:43.302Z,11504.00
2022-08-14T06:50:37.165Z,11232.00
2022-08-14T06:51:44.912Z,10996.00
2022-08-14T06:52:39.104Z,10904.00
2022-08-14T06:53:39.068Z,10928.00
2022-08-14T06:54:36.262Z,10900.00
2022-08-14T06:55:37.098Z,10904.00
2022-08-14T06:56:36.125Z,10952.00
2022-08-14T06:57:37.076Z,10964.00
2022-08-14T06:58:36.765Z,11008.00
2022-08-14T06:59:36.357Z,11124.00
2022-08-14T07:00:36.117Z,11444.00
2022-08-14T07:01:36.780Z,12364.00
2022-08-14T07:02:36.769Z,15176.00
2022-08-14T07:03:37.718Z,18496.00
2022-08-14T07:04:36.800Z,20384.00
2022-08-14T07:05:36.711Z,21888.00
2022-08-14T07:06:46.395Z,21056.00
2022-08-14T07:07:37.671Z,21312.00
2022-08-14T07:08:35.998Z,22816.00
2022-08-14T07:09:43.521Z,23296.00
2022-08-14T07:10:37.011Z,23872.00
2022-08-14T07:11:36.634Z,24192.00
2022-08-14T07:12:56.677Z,24864.00
2022-08-14T07:13:36.973Z,25920.00
2022-08-14T07:14:35.914Z,27040.00
2022-08-14T07:15:39.944Z,27616.00
2022-08-14T07:16:37.576Z,27808.00
2022-08-14T07:17:36.873Z,26688.00
2022-08-14T07:18:36.783Z,26784.00
2022-08-14T07:19:36.074Z,28160.00
2022-08-14T07:20:36.545Z,28384.00
2022-08-14T07:21:36.805Z,28992.00
2022-08-14T07:22:56.069Z,29824.00
2022-08-14T07:23:40.190Z,28512.00
2022-08-14T07:24:36.813Z,28608.00
2022-08-14T07:25:37.656Z,28192.00
2022-08-14T07:26:36.537Z,23072.00
2022-08-14T07:27:35.958Z,23232.00
2022-08-14T07:28:43.603Z,28512.00
2022-08-14T07:29:38.722Z,28000.00
2022-08-14T07:30:35.759Z,25632.00
2022-08-14T07:31:36.760Z,28640.00
2022-08-14T07:32:36.579Z,30944.00
2022-08-14T07:33:35.737Z,29824.00
2022-08-14T07:34:41.307Z,28768.00
2022-08-14T07:35:57.988Z,28832.00
2022-08-14T07:36:37.374Z,27136.00
2022-08-14T07:37:37.634Z,24000.00
2022-08-14T07:38:37.864Z,25856.00
2022-08-14T07:39:35.680Z,31808.00
2022-08-14T07:40:37.583Z,32096.00
2022-08-14T07:41:36.323Z,30304.00
2022-08-14T07:42:36.310Z,31840.00
2022-08-14T07:43:36.506Z,32448.00
2022-08-14T07:44:45.787Z,31520.00
2022-08-14T07:45:36.613Z,28480.00
2022-08-14T07:46:35.615Z,23296.00
2022-08-14T07:47:35.640Z,19776.00
2022-08-14T07:48:36.246Z,20992.00
2022-08-14T07:49:36.291Z,24672.00
2022-08-14T07:50:37.374Z,26720.00
2022-08-14T07:51:37.155Z,24064.00
2022-08-14T07:52:35.531Z,21152.00
2022-08-14T07:53:39.180Z,20704.00
2022-08-14T07:54:37.200Z,20672.00
2022-08-14T07:55:35.582Z,21632.00
2022-08-14T07:56:48.137Z,21024.00
2022-08-14T07:57:36.470Z,18752.00
2022-08-14T07:58:38.869Z,16704.00
2022-08-14T07:59:40.845Z,14756.00
2022-08-14T08:00:37.354Z,13832.00
2022-08-14T08:01:35.692Z,13968.00
2022-08-14T08:02:36.409Z,14180.00
2022-08-14T08:03:36.554Z,13148.00
2022-08-14T08:04:38.743Z,12880.00
2022-08-14T08:05:35.610Z,12732.00
2022-08-14T08:06:36.064Z,12484.00
2022-08-14T08:07:39.191Z,12356.00
2022-08-14T08:08:35.761Z,12084.00
2022-08-14T08:09:36.678Z,11916.00
2022-08-14T08:11:01.255Z,11916.00
2022-08-14T08:11:37.122Z,11820.00
2022-08-14T08:12:36.015Z,11660.00
2022-08-14T08:13:35.334Z,11616.00
2022-08-14T08:14:55.642Z,11504.00
2022-08-14T08:15:38.924Z,11432.00
2022-08-14T08:16:35.969Z,11400.00
2022-08-14T08:17:42.326Z,11288.00
2022-08-14T08:18:37.905Z,11192.00
2022-08-14T08:19:36.871Z,11124.00
2022-08-14T08:20:38.353Z,11032.00
2022-08-14T08:21:35.761Z,10896.00
2022-08-14T08:22:37.346Z,10856.00
2022-08-14T08:23:40.774Z,10776.00
2022-08-14T08:24:36.451Z,10616.00
2022-08-14T08:25:40.059Z,10500.00
2022-08-14T08:26:39.715Z,10448.00
2022-08-14T08:27:35.219Z,10356.00
2022-08-14T08:28:35.163Z,10176.00
2022-08-14T08:29:37.634Z,10100.00
2022-08-14T08:30:36.135Z,10020.00
2022-08-14T08:31:35.492Z,9960.00
2022-08-14T08:32:35.295Z,9808.00
2022-08-14T08:33:37.308Z,9660.00
2022-08-14T08:34:35.916Z,9528.00
2022-08-14T08:35:47.063Z,9416.00
2022-08-14T08:36:36.801Z,9280.00
2022-08-14T08:37:40.209Z,9120.00
2022-08-14T08:39:18.539Z,8940.00
2022-08-14T08:40:01.626Z,8684.00
2022-08-14T08:40:42.278Z,8468.00
2022-08-14T08:41:35.371Z,8252.00
2022-08-14T08:42:51.982Z,8096.00
2022-08-14T08:43:36.100Z,7836.00
2022-08-14T08:44:35.683Z,7508.00
2022-08-14T08:45:35.010Z,7332.00
2022-08-14T08:46:35.940Z,7168.00
2022-08-14T08:47:35.183Z,6988.00
2022-08-14T08:48:46.721Z,6856.00
2022-08-14T08:49:42.926Z,6680.00
2022-08-14T08:51:08.437Z,6524.00
2022-08-14T08:52:24.548Z,6468.00
2022-08-14T08:53:10.258Z,6364.00
2022-08-14T08:54:19.970Z,6284.00
2022-08-14T08:55:10.805Z,6200.00
2022-08-14T08:56:08.419Z,6048.00
2022-08-14T08:57:08.079Z,5936.00
2022-08-14T08:58:12.762Z,5904.00
2022-08-14T08:59:08.753Z,5848.00
2022-08-14T09:00:30.454Z,5820.00
2022-08-14T09:01:08.466Z,5760.00
2022-08-14T09:02:10.744Z,5668.00
2022-08-14T09:03:10.215Z,5612.00
2022-08-14T09:04:17.317Z,5596.00
2022-08-14T09:05:09.367Z,5552.00
2022-08-14T09:06:53.669Z,5500.00
2022-08-14T09:07:11.149Z,5448.00
2022-08-14T09:08:08.711Z,5412.00
2022-08-14T09:09:10.046Z,5396.00
2022-08-14T09:10:07.637Z,5344.00
2022-08-14T09:11:19.174Z,5284.00
2022-08-14T09:12:09.498Z,5276.00
2022-08-14T09:13:08.583Z,5264.00
2022-08-14T09:14:08.246Z,5184.00
2022-08-14T09:15:11.527Z,5120.00
2022-08-14T09:16:19.164Z,5100.00
2022-08-14T09:17:08.550Z,5060.00
2022-08-14T09:18:08.479Z,5088.00
2022-08-14T09:19:08.198Z,5072.00
2022-08-14T09:20:07.509Z,5044.00
2022-08-14T09:21:07.512Z,4968.00
2022-08-14T09:22:34.844Z,4892.00
2022-08-14T09:23:09.148Z,4900.00
2022-08-14T09:24:29.009Z,4868.00
2022-08-14T09:25:09.132Z,4872.00
2022-08-14T09:26:21.244Z,4884.00
2022-08-14T09:27:09.460Z,4876.00
2022-08-14T09:28:09.770Z,4864.00
2022-08-14T09:29:07.402Z,4880.00
2022-08-14T09:30:31.161Z,4876.00
2022-08-14T09:31:17.930Z,4896.00
2022-08-14T09:32:57.991Z,4852.00
2022-08-14T09:33:11.049Z,4840.00
2022-08-14T09:34:09.412Z,4808.00
2022-08-14T09:35:09.806Z,4800.00
2022-08-14T09:36:09.132Z,4800.00
2022-08-14T09:37:07.339Z,4780.00
2022-08-14T09:38:17.656Z,4812.00
2022-08-14T09:39:13.003Z,4820.00
2022-08-14T09:40:10.489Z,4832.00
2022-08-14T09:41:08.318Z,4804.00
2022-08-14T09:42:20.473Z,4804.00
2022-08-14T09:43:08.333Z,4784.00
2022-08-14T09:44:07.308Z,4800.00
2022-08-14T09:45:08.915Z,4868.00
2022-08-14T09:46:07.900Z,4924.00
2022-08-14T09:47:07.679Z,4920.00
2022-08-14T09:48:08.013Z,4828.00
2022-08-14T09:49:12.029Z,4740.00
2022-08-14T09:50:08.221Z,4688.00
2022-08-14T09:51:44.874Z,4000.00
2022-08-14T09:52:44.009Z,4800.00
2022-08-14T09:54:17.725Z,4752.00
2022-08-14T09:54:41.396Z,4740.00
2022-08-14T09:55:42.447Z,4704.00
2022-08-14T09:56:38.878Z,4588.00
2022-08-14T09:57:39.849Z,4520.00
2022-08-14T09:58:40.883Z,4508.00
2022-08-14T09:59:38.898Z,4484.00
2022-08-14T10:00:39.539Z,4500.00
2022-08-14T10:01:38.889Z,4544.00
2022-08-14T10:02:45.684Z,4580.00
2022-08-14T10:03:40.520Z,4608.00
2022-08-14T10:04:42.270Z,4604.00
2022-08-14T10:05:41.750Z,4624.00
2022-08-14T10:06:38.794Z,4656.00
2022-08-14T10:07:41.224Z,4700.00
2022-08-14T10:08:39.792Z,4712.00
2022-08-14T10:09:39.452Z,4720.00
2022-08-14T10:10:38.781Z,4708.00
2022-08-14T10:11:41.063Z,4676.00
2022-08-14T10:12:39.480Z,4732.00
2022-08-14T10:13:52.737Z,4748.00
2022-08-14T10:14:42.146Z,4776.00
2022-08-14T10:15:38.805Z,4796.00
2022-08-14T10:16:38.706Z,4828.00
2022-08-14T10:17:38.926Z,4880.00
2022-08-14T10:18:38.736Z,4932.00
2022-08-14T10:19:39.376Z,5000.00
2022-08-14T10:20:40.281Z,5088.00
2022-08-14T10:23:10.829Z,5108.00
2022-08-14T10:23:13.646Z,3536.00
2022-08-14T10:23:39.665Z,5692.00
2022-08-14T10:24:38.639Z,5484.00
2022-08-14T10:25:39.570Z,5516.00
2022-08-14T10:26:38.649Z,5388.00
2022-08-14T10:27:38.574Z,5392.00
2022-08-14T10:28:39.484Z,5308.00
2022-08-14T10:29:39.623Z,5284.00
2022-08-14T10:30:39.245Z,5328.00
2022-08-14T10:31:44.934Z,5376.00
2022-08-14T10:32:42.099Z,5432.00
2022-08-14T10:33:41.954Z,5500.00
2022-08-14T10:34:38.690Z,5584.00
2022-08-14T10:35:39.485Z,5640.00
2022-08-14T10:36:40.959Z,5756.00
2022-08-14T10:37:40.047Z,6000.00
2022-08-14T10:38:38.905Z,6432.00
2022-08-14T10:39:38.522Z,6848.00
2022-08-14T10:40:43.908Z,6884.00
2022-08-14T10:41:46.577Z,6908.00
2022-08-14T10:42:41.457Z,6716.00
2022-08-14T10:43:39.914Z,5824.00
2022-08-14T10:44:38.421Z,4140.00
2022-08-14T10:45:42.017Z,3300.00
2022-08-14T10:47:41.602Z,3128.00
2022-08-14T10:48:07.526Z,3064.00
2022-08-14T10:48:44.964Z,3056.00
2022-08-14T10:49:40.432Z,3060.00
2022-08-14T10:50:38.368Z,3120.00
2022-08-14T10:51:41.688Z,3076.00
2022-08-14T10:52:38.377Z,3008.00
2022-08-14T10:53:39.823Z,3008.00
2022-08-14T10:54:40.318Z,3008.00
2022-08-14T10:55:38.548Z,3020.00
2022-08-14T10:56:38.971Z,2980.00
2022-08-14T10:57:38.461Z,2928.00
2022-08-14T10:58:38.393Z,2648.00
2022-08-14T10:59:43.157Z,2788.00
2022-08-14T11:00:38.294Z,2732.00
2022-08-14T11:01:41.281Z,3188.00
2022-08-14T11:02:54.285Z,3180.00
2022-08-14T11:03:56.608Z,3092.00
2022-08-14T11:04:39.971Z,3072.00
2022-08-14T11:05:38.200Z,2776.00
2022-08-14T11:06:38.877Z,2748.00
2022-08-14T11:07:38.295Z,2672.00
2022-08-14T11:08:39.157Z,2612.00
2022-08-14T11:09:41.835Z,2664.00
2022-08-14T11:10:38.838Z,2652.00
2022-08-14T11:11:38.243Z,2616.00
2022-08-14T11:12:40.560Z,2596.00
2022-08-14T11:13:38.812Z,2584.00
2022-08-14T11:14:38.793Z,2568.00
2022-08-14T11:15:38.230Z,2568.00
2022-08-14T11:16:40.699Z,2548.00
2022-08-14T11:17:38.131Z,2568.00
2022-08-14T11:18:40.335Z,2620.00
2022-08-14T11:19:38.113Z,2604.00
2022-08-14T11:20:38.975Z,2580.00
2022-08-14T11:21:38.923Z,2600.00
2022-08-14T11:23:02.888Z,2608.00
2022-08-14T11:23:40.856Z,2612.00
2022-08-14T11:24:50.479Z,2644.00
2022-08-14T11:25:44.441Z,2652.00
2022-08-14T11:26:40.943Z,2632.00
2022-08-14T11:27:38.902Z,2592.00
2022-08-14T11:28:46.183Z,2556.00
2022-08-14T11:29:38.946Z,2540.00
2022-08-14T11:30:50.980Z,2588.00
2022-08-14T11:31:39.346Z,2736.00
2022-08-14T11:32:39.896Z,2680.00
2022-08-14T11:33:38.626Z,2636.00
2022-08-14T11:34:37.907Z,2652.00
2022-08-14T11:35:47.559Z,2680.00
2022-08-14T11:37:09.826Z,2740.00
2022-08-14T11:37:40.807Z,2784.00
2022-08-14T11:38:38.540Z,2856.00
2022-08-14T11:39:37.985Z,2896.00
2022-08-14T11:40:37.860Z,2944.00
2022-08-14T11:41:41.422Z,2968.00
2022-08-14T11:42:57.775Z,2996.00
2022-08-14T11:43:40.357Z,2936.00
2022-08-14T11:44:46.619Z,2884.00
2022-08-14T11:45:39.462Z,2848.00
2022-08-14T11:46:38.453Z,2824.00
2022-08-14T11:48:11.194Z,2836.00
2022-08-14T11:49:02.688Z,2852.00
2022-08-14T11:49:38.780Z,2860.00
2022-08-14T11:50:38.429Z,2884.00
2022-08-14T11:51:54.041Z,2996.00
2022-08-14T11:52:40.747Z,2964.00
2022-08-14T11:53:37.745Z,2844.00
2022-08-14T11:54:37.696Z,2756.00
2022-08-14T11:55:38.343Z,2764.00
2022-08-14T11:56:38.356Z,2824.00
2022-08-14T11:57:38.337Z,2912.00
2022-08-14T11:58:37.657Z,3132.00
2022-08-14T11:59:44.238Z,3272.00
2022-08-14T12:00:40.214Z,2904.00
2022-08-14T12:01:41.187Z,2740.00
2022-08-14T12:03:03.429Z,2732.00
2022-08-14T12:03:46.710Z,2612.00
2022-08-14T12:04:38.622Z,2536.00
2022-08-14T12:05:38.260Z,2536.00
2022-08-14T12:06:39.661Z,2532.00
2022-08-14T12:07:48.243Z,2516.00
2022-08-14T12:08:40.472Z,2500.00
2022-08-14T12:09:38.245Z,2464.00
2022-08-14T12:10:42.407Z,2188.00
2022-08-14T12:11:43.345Z,2184.00
2022-08-14T12:12:42.290Z,2080.00
2022-08-14T12:13:38.184Z,2396.00
2022-08-14T12:14:40.580Z,2416.00
2022-08-14T12:15:44.812Z,2424.00
2022-08-14T12:16:39.146Z,2392.00
2022-08-14T12:17:47.687Z,2388.00
2022-08-14T12:18:39.127Z,2356.00
2022-08-14T12:19:37.446Z,2372.00
2022-08-14T12:20:37.459Z,2408.00
2022-08-14T12:21:39.366Z,2660.00
2022-08-14T12:22:38.085Z,2484.00
2022-08-14T12:23:39.948Z,2516.00
2022-08-14T12:24:40.142Z,2540.00
2022-08-14T12:25:37.390Z,2508.00